• Join FlightAware (Why Join?)
  • Login
  • US Flag 
04:49PM EST


 

Airport Tracker/Info


-or-


 

Live Flight TrackerFlight Track Log ✈ N770NC ✈ 13-Jun-2013 ✈ KSAV - KATL

Flight Track Log - Related Links

Times and Time Zones

All times are in EDT time to prevent confusion due to time zone crossing. See the N770NC flight status page for this flight to view local times or setup timezone preferences in your user account.

Time Position Orientation Groundspeed Altitude Reporting Facility
EDT Latitude Longitude Course Direction KTS MPH feet Rate Location/Type
11:47AM 32.1808 -81.4003 287° West 243 280 5,800  Level Jacksonville Center
11:48AM 32.2215 -81.5527 287° West  Level FlightAware Approximate
11:48AM 32.2108 -81.4783 294° West 258 297 8,000  Level Jacksonville Center
11:49AM 32.2442 -81.6432 286° West  Level FlightAware Approximate
11:49AM 32.2408 -81.5564 294° West 263 303 10,300  Level Jacksonville Center
11:50AM 32.2664 -81.7266 288° West  Level FlightAware Approximate
11:50AM 32.2711 -81.6394 293° West 291 335 11,300  Level Jacksonville Center
11:51AM 32.2891 -81.8098 288° West  Level FlightAware Approximate
11:51AM 32.3408 -81.7369 310° West 336 387 13,000  Level Jacksonville Center
11:52AM 32.3109 -81.8933 287° West  Level FlightAware Approximate
11:52AM 32.4433 -81.8581 315° West 361 415 16,400  Level Atlanta Center
11:53AM 32.5033 -81.9503 308° West 368 423 18,500 2,000 Climbing Atlanta Center
11:54AM 32.5097 -82.0931 273° West 365 420 20,400 1,550 Climbing Atlanta Center
11:55AM 32.5200 -82.2183 276° West 383 441 21,600 800 Climbing Atlanta Center
11:56AM 32.5242 -82.3564 272° West 403 464 22,000 200 Climbing Atlanta Center
11:57AM 32.5303 -82.5017 273° West 424 488 22,000  Level Atlanta Center
11:58AM 32.5486 -82.6417 279° West 436 502 22,000  Level Atlanta Center
11:59AM 32.5750 -82.7867 282° West 444 511 22,000  Level Atlanta Center
12:00PM 32.6161 -82.9217 290° West 439 505 22,000  Level Atlanta Center
12:01PM 32.6919 -83.0169 313° West 430 495 22,000  Level Atlanta Center
12:02PM 32.7722 -83.1197 313° West 430 495 22,000  Level Atlanta Center
12:03PM 32.8503 -83.2425 307° West 424 488 22,000 -650 Level Atlanta Center
12:04PM 32.9156 -83.3458 307° West 429 494 20,700 -2,200 Descending Atlanta Center
12:05PM 32.9850 -83.4544 307° West 424 488 17,600 -3,450 Descending Atlanta Center
12:06PM 33.0647 -83.5556 313° West 401 461 13,800 -2,500 Descending Atlanta Center
12:07PM 33.1339 -83.6344 316° Northwest 382 440 12,600 -1,161 Descending Atlanta Center
12:08PM 33.1833 -83.6833 320° Northwest 357 411 12,000 -387 Descending Atlanta TRACON
12:09PM 33.2333 -83.7500 312° West 296 341 12,000 -500 Level Atlanta TRACON
12:10PM 33.2833 -83.8333 306° West 285 328 11,000 -1,350 Descending Atlanta TRACON
12:11PM 33.3333 -83.9167 306° West 271 312 9,300 -1,655 Descending Atlanta TRACON
12:11PM 33.3433 -83.9394 298° West 275 316 8,600 -897 Descending Atlanta Center
12:12PM 33.4103 -83.9892 328° Northwest 267 307 8,000 -800 Descending Atlanta Center
12:13PM 33.4728 -84.0339 329° Northwest 272 313 7,000 -1,150 Descending Atlanta Center
12:14PM 33.5397 -84.0811 330° Northwest 262 302 5,700 -1,050 Descending Atlanta Center
12:15PM 33.5814 -84.1236 320° Northwest 229 264 4,900 -1,161 Descending Atlanta Center
12:16PM 33.6000 -84.1500 310° West 172 198 3,900 -1,226 Descending Atlanta TRACON
12:17PM 33.6167 -84.2000 292° West 174 200 3,000 -900 Descending Atlanta TRACON